Terminal Aerodrome Forecast
Issued by NWS Wilmington, OH

Current Version | Previous Version | Graphics & Text | Print | Product List | Glossary On
Versions: 1 2 3 4 5 6 7 8 9 10 11 12 13 14 15 16
000
FTUS41 KILN 262300
TAFCMH
TAF
KCMH 262332Z 2700/2724 16007KT P6SM BKN150
     FM270300 18006KT P6SM BKN040
     FM271200 19010KT P6SM BKN060
     FM271900 20010KT P6SM VCSH OVC040=

USA.gov is the U.S. government's official web portal to all federal, state and local government web resources and services.